Terminal Aerodrome Forecast
Issued by NWS

Current Version | Previous Version | Graphics & Text | Print | Product List | Glossary On
Versions: 1 2 3 4 5 6 7 8 9 10 11 12 13 14 15 16 17 18 19 20 21 22 23 24 25 26
000
FTUS41 KRLX 161100
TAFCKB
TAF
KCKB 161131Z 1612/1712 13008G15KT P6SM BKN070
     FM161500 15011G17KT P6SM OVC050
     FM161800 17010G15KT P6SM SHRA OVC040
     FM170600 18006KT P6SM SHRA OVC040
     FM170900 19004KT P6SM BKN008
     FM171100 21004KT P6SM BKN025=

USA.gov is the U.S. government's official web portal to all federal, state and local government web resources and services.